Time;durP1;ratioP1;P1;durP2;ratioP2;P2;SDS_P1;SDS_P2;PMS_P1;PMS_P2;Temp;Humidity;BMP_temperature;BMP_pressure;BME280_temperature;BME280_humidity;BME280_pressure;Samples;Min_cycle;Max_cycle;Signal;HPM_P1;HPM_P2
2022/12/24 00:01:02;;;;;;;2.92;1.50;;;;;;;14.34;56.91;92592.34;4935700;29;20054;-85
2022/12/24 00:03:27;;;;;;;2.20;1.42;;;;;;;14.34;56.95;92583.44;4967958;28;20065;-86
2022/12/24 00:05:53;;;;;;;2.15;1.60;;;;;;;14.35;57.23;92587.66;4987685;28;20504;-87
2022/12/24 00:08:18;;;;;;;3.60;1.90;;;;;;;14.31;56.87;92579.03;4954328;28;20067;-88
2022/12/24 00:10:44;;;;;;;2.03;1.40;;;;;;;14.30;57.15;92589.16;4954535;28;20058;-88
2022/12/24 00:13:09;;;;;;;1.90;1.58;;;;;;;14.30;56.92;92594.59;4955440;28;20046;-88
2022/12/24 00:15:35;;;;;;;3.42;1.73;;;;;;;14.32;56.86;92602.25;4939039;28;20043;-85
2022/12/24 00:18:00;;;;;;;1.95;1.40;;;;;;;14.31;56.95;92593.34;4935835;29;20134;-88
2022/12/24 00:20:25;;;;;;;1.30;1.15;;;;;;;14.31;57.14;92593.34;4986281;28;20034;-87
2022/12/24 00:22:51;;;;;;;2.33;1.40;;;;;;;14.34;56.90;92597.03;4955619;28;20046;-86
2022/12/24 00:25:16;;;;;;;2.20;1.90;;;;;;;14.33;56.82;92603.72;4954383;28;20042;-88
2022/12/24 00:27:42;;;;;;;2.03;1.50;;;;;;;14.32;56.80;92591.38;4971220;28;20583;-88
2022/12/24 00:30:08;;;;;;;2.38;1.90;;;;;;;14.31;57.05;92598.78;4954501;28;20053;-85
2022/12/24 00:32:33;;;;;;;1.40;1.30;;;;;;;14.30;56.98;92602.75;4971916;28;20145;-84
2022/12/24 00:34:59;;;;;;;1.85;1.50;;;;;;;14.32;56.80;92607.69;4966318;28;20039;-88
2022/12/24 00:37:24;;;;;;;1.55;1.45;;;;;;;14.35;56.71;92609.41;4949248;28;20070;-88
2022/12/24 00:39:49;;;;;;;1.73;1.40;;;;;;;14.35;56.84;92599.25;4917655;29;20054;-86
2022/12/24 00:42:15;;;;;;;1.90;1.70;;;;;;;14.30;56.54;92608.19;4930241;28;20044;-86
2022/12/24 00:44:40;;;;;;;2.05;1.80;;;;;;;14.32;56.61;92608.41;4924401;28;20046;-88
2022/12/24 00:47:06;;;;;;;2.58;1.67;;;;;;;14.32;56.84;92604.97;4969188;28;20035;-87
2022/12/24 00:49:31;;;;;;;2.00;1.80;;;;;;;14.35;56.62;92612.84;4947541;28;20310;-87
2022/12/24 00:51:56;;;;;;;2.30;1.60;;;;;;;14.31;56.88;92608.91;4934023;28;20110;-87
2022/12/24 00:54:22;;;;;;;2.53;1.70;;;;;;;14.32;56.40;92613.84;4917319;28;20078;-88
2022/12/24 00:56:47;;;;;;;1.90;1.55;;;;;;;14.33;56.88;92637.09;4936697;28;20582;-86
2022/12/24 00:59:13;;;;;;;1.95;1.58;;;;;;;14.33;56.83;92636.34;4967175;28;20590;-87
2022/12/24 01:01:38;;;;;;;1.40;1.20;;;;;;;14.33;56.53;92639.81;4914670;29;20052;-88
2022/12/24 01:06:47;;;;;;;1.58;1.38;;;;;;;14.35;56.88;92642.03;4950986;28;20113;-88
2022/12/24 01:09:13;;;;;;;2.60;1.40;;;;;;;14.34;56.72;92640.53;4951547;28;20036;-86
2022/12/24 01:11:38;;;;;;;1.95;1.50;;;;;;;14.29;56.78;92652.91;4953977;28;20084;-87
2022/12/24 01:14:04;;;;;;;1.60;1.50;;;;;;;14.30;56.94;92651.69;4954411;28;20424;-86
2022/12/24 01:16:29;;;;;;;2.05;1.25;;;;;;;14.33;56.85;92655.38;4935211;29;20229;-88
2022/12/24 01:18:55;;;;;;;1.95;1.40;;;;;;;14.31;56.89;92652.41;4986271;28;20054;-87
2022/12/24 01:21:20;;;;;;;1.80;1.48;;;;;;;14.32;56.56;92657.34;4953608;28;20042;-86
2022/12/24 01:23:45;;;;;;;3.38;1.52;;;;;;;14.29;56.82;92660.38;4970247;28;20082;-86
2022/12/24 01:26:11;;;;;;;2.60;1.60;;;;;;;14.31;56.77;92655.88;4953751;28;20113;-86
2022/12/24 01:28:36;;;;;;;2.53;1.70;;;;;;;14.30;56.60;92661.81;4953767;28;20511;-85
2022/12/24 01:31:02;;;;;;;1.85;1.42;;;;;;;14.29;57.20;92660.38;4953946;28;20054;-88
2022/12/24 01:33:28;;;;;;;1.73;1.38;;;;;;;14.31;56.54;92674.16;4937108;28;20027;-87
2022/12/24 01:35:53;;;;;;;2.00;1.50;;;;;;;14.32;56.71;92668.22;4954233;28;20065;-87
2022/12/24 01:38:19;;;;;;;1.75;1.55;;;;;;;14.33;56.75;92677.88;4970489;28;20382;-85
2022/12/24 01:43:30;;;;;;;1.85;1.50;;;;;;;14.32;56.93;92686.53;4970322;28;20062;-87
2022/12/24 01:45:58;;;;;;;1.60;1.40;;;;;;;14.33;56.61;92688.00;4937500;28;20049;-87
2022/12/24 01:48:47;;;;;;;2.63;1.45;;;;;;;14.33;56.78;92698.88;4969413;28;20087;-87
2022/12/24 01:51:47;;;;;;;2.45;1.65;;;;;;;14.32;56.73;92697.41;4968957;28;20065;-86
2022/12/24 01:54:28;;;;;;;2.10;1.90;;;;;;;14.33;56.50;92688.75;4985023;28;20042;-87
2022/12/24 01:56:58;;;;;;;1.45;1.35;;;;;;;14.34;56.51;92687.50;4970190;28;20046;-86
2022/12/24 01:59:23;;;;;;;2.05;1.45;;;;;;;14.37;56.76;92689.22;4969120;28;20031;-87
2022/12/24 02:01:49;;;;;;;1.73;1.27;;;;;;;14.37;56.72;92686.50;4949466;29;20627;-85
2022/12/24 02:04:37;;;;;;;2.33;1.50;;;;;;;14.36;56.39;92678.84;4968390;28;20508;-87
2022/12/24 02:07:02;;;;;;;1.98;1.55;;;;;;;14.34;56.50;92670.44;4955632;28;20081;-87
2022/12/24 02:09:28;;;;;;;2.35;1.40;;;;;;;14.33;56.50;92683.31;4952247;28;20054;-85
2022/12/24 02:11:53;;;;;;;2.08;1.50;;;;;;;14.34;56.77;92684.78;4949679;28;20043;-87
2022/12/24 02:14:19;;;;;;;1.40;1.30;;;;;;;14.29;56.55;92704.56;4961564;28;20043;-88
2022/12/24 02:17:17;;;;;;;3.03;1.35;;;;;;;14.32;56.77;92751.78;4953339;28;20053;-87
2022/12/24 02:19:45;;;;;;;1.50;1.30;;;;;;;14.31;57.08;92753.00;4968825;28;20093;-86
2022/12/24 02:22:18;;;;;;;2.45;1.90;;;;;;;14.26;56.71;92757.25;4967864;28;20046;-86
2022/12/24 02:24:59;;;;;;;1.80;1.60;;;;;;;14.25;56.78;92766.63;4985607;28;20126;-85
2022/12/24 02:27:32;;;;;;;2.67;1.67;;;;;;;14.31;56.74;92759.19;4968731;28;20050;-87
2022/12/24 02:30:07;;;;;;;2.33;1.73;;;;;;;14.32;56.65;92749.06;4952526;28;20090;-88
2022/12/24 02:32:42;;;;;;;1.70;1.50;;;;;;;14.27;56.80;92755.28;4967903;28;20066;-86
2022/12/24 02:35:29;;;;;;;1.80;1.50;;;;;;;14.30;56.78;92762.41;4968857;28;20035;-88
2022/12/24 02:38:02;;;;;;;1.95;1.67;;;;;;;14.31;56.29;92750.28;4952695;28;20047;-87
2022/12/24 02:40:30;;;;;;;2.10;1.73;;;;;;;14.30;56.53;92743.38;4951766;28;20038;-86
2022/12/24 02:42:58;;;;;;;2.50;1.50;;;;;;;14.28;56.84;92732.28;4937304;28;20039;-87
2022/12/24 02:45:31;;;;;;;4.65;1.60;;;;;;;14.29;56.71;92745.34;4948582;28;20544;-85
2022/12/24 02:47:56;;;;;;;2.38;1.70;;;;;;;14.29;56.33;92734.47;4965319;28;20119;-86
2022/12/24 02:50:22;;;;;;;2.28;1.38;;;;;;;14.27;56.64;92736.25;4967984;28;20054;-86
2022/12/24 02:52:47;;;;;;;1.73;1.52;;;;;;;14.26;56.62;92730.06;4969304;28;20109;-87
2022/12/24 02:55:46;;;;;;;1.80;1.58;;;;;;;14.30;56.76;92735.22;4968342;28;20031;-88
2022/12/24 02:58:24;;;;;;;1.80;1.50;;;;;;;14.31;56.35;92753.75;4951470;28;20505;-86
2022/12/24 03:01:14;;;;;;;2.63;1.65;;;;;;;14.32;56.56;92757.94;4951658;28;20397;-87
2022/12/24 03:04:17;;;;;;;3.97;1.70;;;;;;;14.33;56.55;92766.84;4969318;28;20078;-86
2022/12/24 03:07:01;;;;;;;2.53;1.85;;;;;;;14.31;56.78;92769.31;4965627;28;20067;-87
2022/12/24 03:09:30;;;;;;;1.77;1.65;;;;;;;14.29;56.43;92777.25;4951498;28;20046;-86
2022/12/24 03:12:05;;;;;;;1.90;1.50;;;;;;;14.29;56.74;92779.97;4968279;28;20749;-88
2022/12/24 03:14:30;;;;;;;2.20;1.80;;;;;;;14.29;56.24;92785.41;4936440;28;20046;-87
2022/12/24 03:16:56;;;;;;;1.67;1.48;;;;;;;14.29;56.44;92780.69;4948723;28;20059;-87
2022/12/24 03:19:22;;;;;;;2.05;1.55;;;;;;;14.29;56.29;92793.56;4956694;28;20387;-87
2022/12/24 03:21:47;;;;;;;2.95;1.45;;;;;;;14.32;56.49;92798.00;4935870;28;20039;-87
2022/12/24 03:24:12;;;;;;;2.47;1.55;;;;;;;14.31;56.64;92815.53;4934861;28;20047;-86
2022/12/24 03:26:38;;;;;;;1.88;1.60;;;;;;;14.28;56.67;92806.44;4935993;28;20050;-88
2022/12/24 03:29:05;;;;;;;2.58;1.27;;;;;;;14.29;56.44;92807.16;4935942;28;20046;-87
2022/12/24 03:31:42;;;;;;;1.95;1.52;;;;;;;14.29;56.66;92807.88;4952194;28;20046;-88
2022/12/24 03:34:08;;;;;;;1.83;1.55;;;;;;;14.34;56.40;92801.69;4935733;28;20034;-86
2022/12/24 03:36:33;;;;;;;1.90;1.50;;;;;;;14.33;56.19;92808.38;4949005;28;20047;-85
2022/12/24 03:38:59;;;;;;;3.38;1.85;;;;;;;14.33;56.42;92807.63;4948824;28;20039;-89
2022/12/24 03:41:24;;;;;;;3.30;1.75;;;;;;;14.31;56.39;92813.56;4940923;28;20047;-88
2022/12/24 03:43:50;;;;;;;2.13;1.58;;;;;;;14.32;56.13;92828.63;4950894;28;20052;-89
2022/12/24 03:46:15;;;;;;;1.67;1.45;;;;;;;14.31;56.25;92826.41;4960061;28;20521;-88
2022/12/24 03:48:40;;;;;;;1.45;1.35;;;;;;;14.28;56.17;92839.03;4965708;28;20512;-88
2022/12/24 03:51:17;;;;;;;2.47;1.70;;;;;;;14.30;56.50;92835.81;4967469;28;20370;-87
2022/12/24 03:53:43;;;;;;;1.90;1.70;;;;;;;14.31;56.21;92827.16;4952784;28;20125;-88
2022/12/24 03:56:08;;;;;;;2.42;1.73;;;;;;;14.31;56.24;92838.03;4967643;28;20516;-86
2022/12/24 03:58:33;;;;;;;1.67;1.45;;;;;;;14.30;56.64;92850.13;4952195;28;20054;-87
2022/12/24 04:00:59;;;;;;;1.95;1.60;;;;;;;14.29;56.31;92866.97;4967782;28;20359;-85
2022/12/24 04:03:24;;;;;;;1.88;1.52;;;;;;;14.31;56.20;92873.38;4951444;28;20050;-86
2022/12/24 04:06:01;;;;;;;2.50;1.55;;;;;;;14.33;56.35;92872.88;4952106;28;20044;-88
2022/12/24 04:08:27;;;;;;;3.83;1.55;;;;;;;14.31;56.35;92873.38;4935697;28;20089;-88
2022/12/24 04:10:52;;;;;;;1.52;1.38;;;;;;;14.28;56.19;92868.97;4968757;28;20050;-89
2022/12/24 04:13:18;;;;;;;1.48;1.35;;;;;;;14.33;56.17;92886.47;4971142;28;20079;-85
2022/12/24 04:15:43;;;;;;;2.55;1.50;;;;;;;14.31;56.54;92881.53;4939121;28;20035;-87
2022/12/24 04:18:08;;;;;;;2.35;1.35;;;;;;;14.30;56.74;92880.03;4935925;28;20094;-88
2022/12/24 04:20:34;;;;;;;2.10;1.50;;;;;;;14.30;56.54;92879.31;4971663;28;20038;-90
2022/12/24 04:22:59;;;;;;;1.90;1.50;;;;;;;14.29;55.92;92866.97;4971215;28;20065;-90
2022/12/24 04:25:24;;;;;;;1.55;1.45;;;;;;;14.32;56.01;92860.53;4918101;28;20545;-89
2022/12/24 04:27:50;;;;;;;2.38;1.67;;;;;;;14.29;56.08;92856.09;4918608;29;20058;-90
2022/12/24 04:30:15;;;;;;;2.08;1.80;;;;;;;14.29;56.21;92866.97;4950024;28;20043;-90
2022/12/24 04:32:41;;;;;;;2.55;1.60;;;;;;;14.28;56.44;92868.22;4940913;28;20054;-90
2022/12/24 04:35:07;;;;;;;1.42;1.33;;;;;;;14.28;56.34;92854.63;4953216;28;20042;-89
2022/12/24 04:37:32;;;;;;;2.35;1.88;;;;;;;14.31;56.24;92869.91;4937225;29;20505;-87
2022/12/24 04:39:58;;;;;;;1.98;1.40;;;;;;;14.30;56.17;92869.19;4934727;29;20039;-88
2022/12/24 04:42:26;;;;;;;1.75;1.48;;;;;;;14.30;56.02;92876.59;4933827;28;20147;-89
2022/12/24 04:44:51;;;;;;;2.17;1.63;;;;;;;14.31;56.16;92884.25;4934427;29;20040;-89
2022/12/24 04:47:17;;;;;;;1.90;1.40;;;;;;;14.32;56.44;92891.16;4933404;28;20047;-89
2022/12/24 04:49:42;;;;;;;2.10;1.52;;;;;;;14.32;56.06;92893.16;4934553;29;20039;-89
2022/12/24 04:52:08;;;;;;;1.42;1.27;;;;;;;14.30;56.26;92898.34;4949240;28;20043;-88
2022/12/24 04:54:33;;;;;;;2.20;1.50;;;;;;;14.33;56.26;92894.63;4934426;29;20051;-90
2022/12/24 04:56:58;;;;;;;2.10;1.35;;;;;;;14.35;56.04;92897.59;4965990;28;20038;-90
2022/12/24 04:59:24;;;;;;;1.58;1.30;;;;;;;14.32;56.08;92891.16;4953674;28;20030;-87
2022/12/24 05:01:49;;;;;;;2.28;1.70;;;;;;;14.28;56.17;92904.28;4950923;28;20051;-86
2022/12/24 05:04:15;;;;;;;2.28;1.50;;;;;;;14.30;55.98;92892.91;4950931;28;20047;-90
2022/12/24 05:06:40;;;;;;;2.17;1.77;;;;;;;14.30;55.97;92888.19;4959761;28;20043;-90
2022/12/24 05:09:05;;;;;;;1.80;1.38;;;;;;;14.29;56.16;92889.44;4954158;28;20452;-88
2022/12/24 05:11:31;;;;;;;2.58;1.60;;;;;;;14.30;56.45;92892.91;4953983;28;20051;-90
2022/12/24 05:13:56;;;;;;;2.53;1.73;;;;;;;14.26;56.24;92906.03;4938157;28;20045;-89
2022/12/24 05:16:22;;;;;;;1.80;1.60;;;;;;;14.26;56.18;92906.75;4953957;28;20046;-89
2022/12/24 05:18:47;;;;;;;1.95;1.73;;;;;;;14.29;56.24;92908.47;4970729;28;20043;-87
2022/12/24 05:21:15;;;;;;;1.90;1.55;;;;;;;14.32;55.54;92918.34;4953355;28;20719;-89
2022/12/24 05:26:39;;;;;;;1.50;1.40;;;;;;;14.31;56.21;92918.84;4969598;28;20138;-87
2022/12/24 05:29:07;;;;;;;1.50;1.40;;;;;;;14.32;56.01;92921.06;4938654;28;20039;-89
2022/12/24 05:31:32;;;;;;;1.85;1.60;;;;;;;14.30;55.95;92920.09;4970038;28;20046;-87
2022/12/24 05:33:58;;;;;;;3.78;1.60;;;;;;;14.31;55.95;92925.03;4956144;28;20039;-91
2022/12/24 05:36:24;;;;;;;3.88;1.90;;;;;;;14.32;55.79;92918.34;4970258;28;20039;-89
2022/12/24 05:38:49;;;;;;;1.42;1.33;;;;;;;14.29;55.66;92913.19;4970615;28;20469;-89
2022/12/24 05:41:15;;;;;;;2.17;1.40;;;;;;;14.30;56.04;92904.50;4953298;28;20046;-90
2022/12/24 05:43:40;;;;;;;1.77;1.40;;;;;;;14.29;56.04;92891.44;4953739;28;20045;-89
2022/12/24 05:46:10;;;;;;;2.20;1.67;;;;;;;14.30;56.12;92901.06;4969534;28;20433;-89
2022/12/24 05:48:35;;;;;;;1.30;1.17;;;;;;;14.30;56.10;92903.78;4958824;28;20504;-90
2022/12/24 05:51:05;;;;;;;2.30;1.65;;;;;;;14.32;55.98;92902.03;4934791;28;20046;-90
2022/12/24 05:53:31;;;;;;;2.08;1.83;;;;;;;14.28;55.92;92906.28;4953493;28;20544;-88
2022/12/24 05:56:02;;;;;;;2.58;1.85;;;;;;;14.28;56.05;92920.59;4954008;28;20081;-87
2022/12/24 05:58:28;;;;;;;2.50;1.80;;;;;;;14.27;55.93;92921.84;4951998;28;20047;-89
2022/12/24 06:00:53;;;;;;;2.05;1.50;;;;;;;14.29;55.83;92924.06;4969205;28;20476;-87
2022/12/24 06:03:18;;;;;;;2.00;1.60;;;;;;;14.28;56.12;92941.63;4952711;28;20047;-88
2022/12/24 06:05:44;;;;;;;1.70;1.60;;;;;;;14.30;56.17;92920.09;4953163;28;20042;-90
2022/12/24 06:08:09;;;;;;;2.13;1.58;;;;;;;14.29;56.08;92922.06;4968722;28;20051;-89
2022/12/24 06:10:35;;;;;;;2.17;1.40;;;;;;;14.27;56.04;92931.97;4937614;28;20056;-89
2022/12/24 06:13:00;;;;;;;2.17;1.50;;;;;;;14.29;55.88;92932.22;4953102;28;20051;-89
2022/12/24 06:15:25;;;;;;;2.70;1.60;;;;;;;14.31;55.88;92937.88;4952902;28;20132;-88
2022/12/24 06:17:51;;;;;;;3.10;1.65;;;;;;;14.26;55.97;92935.94;4969503;28;20047;-89
2022/12/24 06:20:16;;;;;;;1.88;1.45;;;;;;;14.27;56.14;92951.00;4952622;28;20109;-89
2022/12/24 06:22:42;;;;;;;2.08;1.60;;;;;;;14.29;55.84;92951.97;4952504;28;20050;-90
2022/12/24 06:25:07;;;;;;;1.77;1.45;;;;;;;14.30;55.87;92955.44;4948708;28;20043;-89
2022/12/24 06:27:33;;;;;;;3.95;2.40;;;;;;;14.32;55.61;92950.97;4961023;28;20051;-90
2022/12/24 06:29:58;;;;;;;2.35;1.42;;;;;;;14.30;55.68;92956.16;4952916;28;20090;-90
2022/12/24 06:32:24;;;;;;;2.58;1.70;;;;;;;14.30;55.82;92952.72;4952351;28;20046;-89
2022/12/24 06:34:49;;;;;;;1.65;1.55;;;;;;;14.27;56.05;92951.00;4968260;28;20519;-90
2022/12/24 06:37:17;;;;;;;2.13;1.55;;;;;;;14.25;55.79;92948.78;4951705;28;20050;-89
2022/12/24 06:39:44;;;;;;;2.55;1.70;;;;;;;14.29;55.74;92951.97;4968799;28;20117;-91
2022/12/24 06:42:10;;;;;;;2.50;1.70;;;;;;;14.28;55.70;92953.22;4968804;28;20042;-88
2022/12/24 06:44:35;;;;;;;2.38;1.50;;;;;;;14.30;55.67;92956.16;4936436;28;20046;-89
2022/12/24 06:47:01;;;;;;;2.33;1.63;;;;;;;14.26;55.86;92961.13;4952707;28;20519;-89
2022/12/24 06:49:26;;;;;;;1.63;1.35;;;;;;;14.30;55.73;92956.16;4951531;28;20048;-90
2022/12/24 06:51:52;;;;;;;2.38;1.70;;;;;;;14.31;55.78;92967.78;4936898;28;20476;-88
2022/12/24 06:54:17;;;;;;;2.22;1.48;;;;;;;14.27;55.92;92968.06;4951673;28;20043;-89
2022/12/24 06:56:42;;;;;;;2.72;1.65;;;;;;;14.29;55.73;92971.00;4952653;28;20428;-89
2022/12/24 06:59:08;;;;;;;2.65;1.52;;;;;;;14.32;55.72;92985.59;4935801;28;20039;-90
2022/12/24 07:01:33;;;;;;;2.60;1.48;;;;;;;14.29;55.70;92973.72;4952445;28;20051;-91
2022/12/24 07:03:58;;;;;;;1.92;1.73;;;;;;;14.29;55.79;92978.44;4968659;28;20050;-89
2022/12/24 07:06:25;;;;;;;2.90;1.20;;;;;;;14.30;55.71;92982.63;4969225;28;20483;-87
2022/12/24 07:08:51;;;;;;;3.75;1.70;;;;;;;14.30;55.73;92975.22;4952630;28;20046;-91
2022/12/24 07:11:17;;;;;;;2.03;1.42;;;;;;;14.28;55.91;92988.56;4951823;28;20527;-89
2022/12/24 07:13:42;;;;;;;2.53;1.50;;;;;;;14.30;55.73;92993.50;4951982;28;20401;-89
2022/12/24 07:16:07;;;;;;;2.45;1.90;;;;;;;14.29;55.66;92998.19;4951770;28;20039;-89
2022/12/24 07:18:33;;;;;;;1.33;1.23;;;;;;;14.30;55.86;93004.38;4952582;28;20348;-89
2022/12/24 07:20:58;;;;;;;1.40;1.30;;;;;;;14.32;55.82;93010.81;4968519;28;20031;-89
2022/12/24 07:23:24;;;;;;;1.73;1.60;;;;;;;14.28;55.74;93006.88;4951500;28;20509;-89
2022/12/24 07:25:49;;;;;;;2.50;1.73;;;;;;;14.26;55.90;93012.78;4952897;28;20488;-90
2022/12/24 07:28:14;;;;;;;2.63;1.98;;;;;;;14.30;55.54;93007.09;4935692;28;20043;-90
2022/12/24 07:30:40;;;;;;;2.30;1.67;;;;;;;14.30;55.62;93015.25;4937071;28;20050;-90
2022/12/24 07:33:05;;;;;;;2.25;1.65;;;;;;;14.30;55.56;93026.13;4960510;28;20047;-89
2022/12/24 07:35:31;;;;;;;2.60;1.35;;;;;;;14.26;55.59;93028.38;4935581;28;20039;-89
2022/12/24 07:37:56;;;;;;;1.65;1.55;;;;;;;14.28;55.79;93031.34;4968308;28;20039;-89
2022/12/24 07:40:21;;;;;;;2.65;1.70;;;;;;;14.27;55.76;93024.41;4935930;28;20042;-88
2022/12/24 07:42:47;;;;;;;2.95;2.00;;;;;;;14.24;56.07;93034.28;4936237;28;20046;-88
2022/12/24 07:45:12;;;;;;;2.55;1.67;;;;;;;14.29;55.73;93035.53;4951951;28;20031;-88
2022/12/24 07:47:38;;;;;;;2.63;1.75;;;;;;;14.28;55.92;93045.66;4955347;28;20069;-90
2022/12/24 07:50:04;;;;;;;3.05;1.80;;;;;;;14.27;55.86;93049.63;4971430;28;20046;-90
2022/12/24 07:52:29;;;;;;;2.65;1.67;;;;;;;14.30;55.75;93037.00;4952128;29;20549;-89
2022/12/24 07:54:55;;;;;;;2.28;1.70;;;;;;;14.31;55.61;93046.63;4968749;28;20045;-89
2022/12/24 07:57:20;;;;;;;1.88;1.60;;;;;;;14.30;55.70;93053.31;4972655;28;20043;-90
2022/12/24 07:59:45;;;;;;;2.88;1.77;;;;;;;14.33;55.49;93049.59;4955216;28;20046;-89
2022/12/24 08:02:11;;;;;;;2.35;1.73;;;;;;;14.32;55.54;93059.75;4971666;28;20058;-89
2022/12/24 08:04:36;;;;;;;1.55;1.45;;;;;;;14.31;55.79;93060.97;4939558;28;20043;-90
2022/12/24 08:07:03;;;;;;;2.58;1.50;;;;;;;14.29;55.50;93071.59;4939752;28;20050;-88
2022/12/24 08:09:31;;;;;;;1.65;1.55;;;;;;;14.31;55.54;93074.56;4971318;28;20045;-89
2022/12/24 08:11:56;;;;;;;1.75;1.55;;;;;;;14.31;55.54;93081.97;4970800;28;20042;-89
2022/12/24 08:14:21;;;;;;;2.70;1.83;;;;;;;14.30;55.55;93091.38;4955007;28;20089;-89
2022/12/24 08:16:47;;;;;;;2.15;1.60;;;;;;;14.28;55.70;93099.31;4955596;28;20039;-87
2022/12/24 08:19:12;;;;;;;3.55;1.85;;;;;;;14.29;55.82;93106.94;4954692;28;20503;-90
2022/12/24 08:21:38;;;;;;;2.95;1.50;;;;;;;14.26;55.67;93105.22;4939184;28;20045;-89
2022/12/24 08:24:03;;;;;;;1.50;1.35;;;;;;;14.31;55.43;93117.31;4948872;28;20051;-89
2022/12/24 08:26:29;;;;;;;3.97;2.05;;;;;;;14.29;55.39;93117.81;4951661;28;20098;-88
2022/12/24 08:28:55;;;;;;;2.38;1.83;;;;;;;14.31;55.58;93128.19;4983800;28;20046;-86
2022/12/24 08:31:21;;;;;;;2.88;1.83;;;;;;;14.30;55.77;93130.19;4954832;28;20050;-91
2022/12/24 08:33:46;;;;;;;2.67;1.60;;;;;;;14.32;55.66;93126.97;4954954;28;20054;-90
2022/12/24 08:36:11;;;;;;;1.70;1.60;;;;;;;14.31;55.74;93126.22;4954082;28;20428;-87
2022/12/24 08:38:37;;;;;;;2.38;1.50;;;;;;;14.31;55.73;93128.94;4971190;28;20050;-89
2022/12/24 08:41:02;;;;;;;1.50;1.40;;;;;;;14.32;55.66;93135.13;4954480;28;20102;-87
2022/12/24 08:43:28;;;;;;;2.10;1.50;;;;;;;14.29;55.61;93128.69;4971138;28;20042;-86
2022/12/24 08:45:53;;;;;;;1.52;1.40;;;;;;;14.26;55.76;93126.22;4955215;28;20162;-89
2022/12/24 08:48:18;;;;;;;4.35;1.90;;;;;;;14.31;55.68;93137.09;4953324;28;20089;-86
2022/12/24 08:50:44;;;;;;;1.95;1.52;;;;;;;14.33;55.59;93126.47;4967801;28;20031;-88
2022/12/24 08:53:09;;;;;;;3.70;1.90;;;;;;;14.31;55.05;93139.81;4932601;28;20412;-88
2022/12/24 08:55:35;;;;;;;3.05;1.60;;;;;;;14.29;55.59;93122.53;4938611;28;20039;-90
2022/12/24 08:58:00;;;;;;;2.03;1.65;;;;;;;14.27;55.72;93136.63;4954131;28;20404;-90
2022/12/24 09:00:26;;;;;;;2.30;1.65;;;;;;;14.34;55.65;93135.38;4950055;28;20413;-89
2022/12/24 09:02:51;;;;;;;2.58;1.80;;;;;;;14.31;55.74;93142.53;4971194;28;20377;-90
2022/12/24 09:05:17;;;;;;;1.88;1.60;;;;;;;14.32;55.33;93144.03;4937271;28;20050;-87
2022/12/24 09:07:42;;;;;;;2.50;1.67;;;;;;;14.34;55.37;93146.25;4954494;28;20046;-88
2022/12/24 09:10:08;;;;;;;3.33;1.58;;;;;;;14.28;55.53;93143.53;4954143;28;20046;-90
2022/12/24 09:12:34;;;;;;;3.15;1.73;;;;;;;14.28;55.43;93137.38;4953561;28;20367;-89
2022/12/24 09:14:59;;;;;;;1.92;1.58;;;;;;;14.30;55.91;93146.50;4938223;28;20046;-88
2022/12/24 09:17:25;;;;;;;2.38;1.48;;;;;;;14.33;55.42;93150.22;4949028;28;20046;-89
2022/12/24 09:19:50;;;;;;;2.28;2.08;;;;;;;14.34;55.48;93148.97;4953804;28;20385;-88
2022/12/24 09:22:15;;;;;;;2.38;1.73;;;;;;;14.31;55.44;93164.28;4968243;28;20043;-89
2022/12/24 09:24:41;;;;;;;2.47;2.15;;;;;;;14.33;55.51;93161.09;4954231;28;20114;-89
2022/12/24 09:27:06;;;;;;;2.80;2.10;;;;;;;14.31;55.46;93147.25;4984360;28;20042;-87
2022/12/24 09:29:32;;;;;;;5.65;1.77;;;;;;;14.31;55.48;93150.69;4955493;28;20051;-88
2022/12/24 09:31:57;;;;;;;2.92;1.70;;;;;;;14.32;55.49;93143.28;4969686;28;20523;-89
2022/12/24 09:34:23;;;;;;;2.63;1.80;;;;;;;14.28;55.64;93157.13;4997750;28;20046;-89
2022/12/24 09:36:50;;;;;;;2.90;1.63;;;;;;;14.31;55.79;93155.41;4965891;28;20047;-87
2022/12/24 09:39:16;;;;;;;2.30;1.75;;;;;;;14.23;55.79;93157.84;4952810;28;20045;-88
2022/12/24 09:42:04;;;;;;;3.88;1.83;;;;;;;14.28;55.82;93145.53;4950326;29;20036;-90
2022/12/24 09:44:51;;;;;;;3.72;1.98;;;;;;;14.24;55.56;93167.50;4968408;28;20041;-88
2022/12/24 09:47:23;;;;;;;2.85;1.83;;;;;;;14.26;55.34;93167.75;4955328;28;20051;-89
2022/12/24 09:49:50;;;;;;;2.20;1.75;;;;;;;14.29;55.77;93176.91;4937433;28;20043;-88
2022/12/24 09:52:25;;;;;;;2.28;1.92;;;;;;;14.30;55.60;93172.94;4953630;28;20489;-90
2022/12/24 09:54:57;;;;;;;4.95;2.15;;;;;;;14.32;55.30;93162.31;4954039;28;20114;-91
2022/12/24 09:57:27;;;;;;;3.45;2.22;;;;;;;14.30;55.51;93176.41;4953633;28;20046;-87
2022/12/24 09:59:52;;;;;;;2.63;1.80;;;;;;;14.32;55.00;93175.91;4951810;28;20154;-87
2022/12/24 10:02:18;;;;;;;2.22;1.52;;;;;;;14.34;55.44;93185.06;4968873;28;20059;-89
2022/12/24 10:04:44;;;;;;;3.72;2.45;;;;;;;14.32;55.40;93176.66;4985630;28;20039;-90
2022/12/24 10:07:21;;;;;;;5.22;2.55;;;;;;;14.33;55.33;93185.56;4952729;28;20488;-89
2022/12/24 10:09:56;;;;;;;2.45;1.90;;;;;;;14.29;55.41;93201.38;4953580;28;20108;-87
2022/12/24 10:12:32;;;;;;;3.70;1.77;;;;;;;14.28;55.17;93187.03;4952844;28;20038;-90
2022/12/24 10:15:03;;;;;;;2.83;2.10;;;;;;;14.31;55.27;93198.91;4954389;28;20407;-89
2022/12/24 10:18:10;;;;;;;2.03;1.67;;;;;;;14.35;55.19;93199.41;4969706;28;20038;-88
2022/12/24 10:20:50;;;;;;;2.45;1.70;;;;;;;14.33;55.31;93207.31;4949683;28;20087;-87
2022/12/24 10:23:37;;;;;;;5.60;2.42;;;;;;;14.33;55.52;93208.06;4969189;28;20041;-89
2022/12/24 10:26:11;;;;;;;3.55;2.10;;;;;;;14.33;55.44;93210.78;4968043;28;20097;-89
2022/12/24 10:28:44;;;;;;;2.55;1.90;;;;;;;14.35;54.66;93202.88;4969340;28;20049;-89
2022/12/24 10:31:10;;;;;;;1.77;1.55;;;;;;;14.33;55.25;93212.75;4952700;28;20042;-88
2022/12/24 10:33:39;;;;;;;4.22;2.28;;;;;;;14.36;55.54;93206.34;4953144;28;20066;-90
2022/12/24 10:36:05;;;;;;;3.13;1.98;;;;;;;14.32;55.30;93206.56;4952298;28;20093;-89
2022/12/24 10:38:31;;;;;;;2.50;1.90;;;;;;;14.33;55.08;93216.22;4936342;28;20050;-90
2022/12/24 10:40:57;;;;;;;3.25;1.98;;;;;;;14.31;55.22;93217.94;4952619;28;20130;-87
2022/12/24 10:43:24;;;;;;;3.00;2.05;;;;;;;14.31;55.40;93221.38;4968177;28;20061;-89
2022/12/24 10:45:58;;;;;;;2.83;2.00;;;;;;;14.33;55.78;93232.53;4953745;28;20496;-89
2022/12/24 10:48:34;;;;;;;4.28;2.20;;;;;;;14.26;55.29;93227.56;4951072;28;20035;-89
2022/12/24 10:51:06;;;;;;;2.65;1.90;;;;;;;14.32;55.52;93219.41;4968749;28;20038;-89
2022/12/24 10:53:37;;;;;;;2.40;2.00;;;;;;;14.31;55.36;93224.13;4952654;28;20077;-89
2022/12/24 10:56:04;;;;;;;3.88;2.20;;;;;;;14.32;55.24;93224.84;4936771;28;20039;-88
2022/12/24 10:58:29;;;;;;;4.22;2.20;;;;;;;14.33;55.07;93227.09;4948761;28;20035;-90
2022/12/24 11:00:55;;;;;;;4.50;1.95;;;;;;;14.33;54.98;93226.34;4972437;28;20647;-90
2022/12/24 11:03:24;;;;;;;3.50;2.13;;;;;;;14.39;54.93;93229.84;4983900;28;20047;-88
2022/12/24 11:06:11;;;;;;;4.20;2.40;;;;;;;14.36;55.22;93228.09;4968607;28;20074;-87
2022/12/24 11:08:37;;;;;;;1.58;1.48;;;;;;;14.35;55.34;93223.88;4968037;28;20051;-89
2022/12/24 11:11:05;;;;;;;4.13;2.10;;;;;;;14.32;55.32;93219.41;4951336;28;20035;-87
2022/12/24 11:13:34;;;;;;;3.95;2.15;;;;;;;14.31;55.38;93226.81;4968248;28;20039;-87
2022/12/24 11:16:02;;;;;;;4.03;2.15;;;;;;;14.33;55.23;93237.97;4984756;28;20090;-89
2022/12/24 11:18:28;;;;;;;3.67;2.20;;;;;;;14.32;55.21;93230.28;4967164;28;20122;-89
2022/12/24 11:20:54;;;;;;;3.28;2.33;;;;;;;14.30;55.27;93232.75;4987679;28;20039;-87
2022/12/24 11:23:19;;;;;;;3.05;2.10;;;;;;;14.34;55.27;93223.13;4945542;28;20472;-87
2022/12/24 11:25:49;;;;;;;3.08;1.92;;;;;;;14.34;54.92;93227.84;4949688;28;20051;-89
2022/12/24 11:28:24;;;;;;;2.38;1.95;;;;;;;14.31;55.24;93224.13;4954689;28;20046;-87
2022/12/24 11:31:02;;;;;;;5.05;2.55;;;;;;;14.35;55.05;93221.16;4987876;28;20101;-89
2022/12/24 11:33:28;;;;;;;4.95;2.58;;;;;;;14.35;54.96;93223.88;4970334;28;20141;-88
2022/12/24 11:36:00;;;;;;;3.00;1.98;;;;;;;14.34;55.00;93233.28;4971549;28;20122;-90
2022/12/24 11:38:26;;;;;;;3.47;1.83;;;;;;;14.36;55.35;93219.94;4987924;28;20053;-89
2022/12/24 11:40:59;;;;;;;4.03;2.03;;;;;;;14.35;55.13;93224.63;4971079;28;20488;-88
2022/12/24 11:43:43;;;;;;;5.68;2.00;;;;;;;14.32;55.02;93224.84;4955221;28;20039;-87
2022/12/24 11:46:16;;;;;;;3.05;2.17;;;;;;;14.32;55.11;93231.03;4971165;28;20049;-88